createdAt,value
2023-02-14T00:01:15.344Z,103127.13
2023-02-14T00:03:42.264Z,103120.94
2023-02-14T00:06:15.131Z,103129.75
2023-02-14T00:08:44.742Z,103120.94
2023-02-14T00:11:13.524Z,103126.22
2023-02-14T00:14:00.582Z,103129.78
2023-02-14T00:16:27.525Z,103127.13
2023-02-14T00:19:03.259Z,103124.47
2023-02-14T00:21:37.912Z,103128.88
2023-02-14T00:24:17.638Z,103123.63
2023-02-14T00:26:45.211Z,103128.91
2023-02-14T00:29:16.368Z,103120.94
2023-02-14T00:31:43.719Z,103122.72
2023-02-14T00:34:11.670Z,103124.50
2023-02-14T00:36:39.133Z,103126.34
2023-02-14T00:39:08.658Z,103126.38
2023-02-14T00:41:38.113Z,103131.75
2023-02-14T00:44:05.969Z,103130.03
2023-02-14T00:46:33.718Z,103133.53
2023-02-14T00:49:01.641Z,103132.72
2023-02-14T00:51:28.925Z,103140.69
2023-02-14T00:53:55.892Z,103146.94
2023-02-14T00:56:23.064Z,103138.97
2023-02-14T00:58:50.043Z,103139.88
2023-02-14T01:01:19.028Z,103135.47
2023-02-14T01:03:45.991Z,103144.31
2023-02-14T01:06:13.177Z,103144.31
2023-02-14T01:08:40.100Z,103145.22
2023-02-14T01:11:16.773Z,103144.41
2023-02-14T01:13:44.779Z,103149.75
2023-02-14T01:16:15.699Z,103147.97
2023-02-14T01:18:43.907Z,103147.97
2023-02-14T01:21:24.337Z,103138.22
2023-02-14T01:23:57.033Z,103140.00
2023-02-14T01:26:25.694Z,103139.09
2023-02-14T01:28:52.737Z,103130.25
2023-02-14T01:31:26.709Z,103147.06
2023-02-14T01:33:54.795Z,103146.16
2023-02-14T01:36:28.602Z,103146.19
2023-02-14T01:39:02.575Z,103150.59
2023-02-14T01:41:32.981Z,103153.25
2023-02-14T01:44:05.752Z,103155.94
2023-02-14T01:46:38.051Z,103138.25
2023-02-14T01:49:28.873Z,103135.66
2023-02-14T01:52:17.301Z,103140.97
2023-02-14T01:55:00.432Z,103147.19
2023-02-14T01:57:36.029Z,103143.66
2023-02-14T02:00:24.424Z,103142.78
2023-02-14T02:02:51.798Z,103143.66
2023-02-14T02:05:23.641Z,103134.84
2023-02-14T02:07:57.529Z,103131.28
2023-02-14T02:10:28.820Z,103129.56
2023-02-14T02:12:56.411Z,103127.78
2023-02-14T02:15:27.353Z,103137.53
2023-02-14T02:18:09.024Z,103122.53
2023-02-14T02:21:18.406Z,103133.13
2023-02-14T02:24:14.146Z,103122.53
2023-02-14T02:26:55.181Z,103121.66
2023-02-14T02:30:15.091Z,103106.66
2023-02-14T02:33:13.494Z,103117.25
2023-02-14T02:36:15.440Z,103111.97
2023-02-14T02:39:34.525Z,103107.53
2023-02-14T02:42:07.382Z,103101.38
2023-02-14T02:45:09.101Z,103083.69
2023-02-14T02:48:09.772Z,103104.00
2023-02-14T02:51:02.636Z,103088.09
2023-02-14T02:53:48.360Z,103087.22
2023-02-14T02:56:41.951Z,103085.44
2023-02-14T02:59:32.991Z,103083.66
2023-02-14T03:02:18.705Z,103081.91
2023-02-14T03:04:54.382Z,103082.78
2023-02-14T03:07:36.328Z,103073.94
2023-02-14T03:10:24.143Z,103075.72
2023-02-14T03:13:26.547Z,103073.03
2023-02-14T03:16:30.593Z,103071.28
2023-02-14T03:19:40.179Z,103062.47
2023-02-14T03:22:25.959Z,103058.06
2023-02-14T03:25:05.201Z,103060.72
2023-02-14T03:27:39.628Z,103063.38
2023-02-14T03:30:31.356Z,103053.69
2023-02-14T03:33:06.497Z,103050.16
2023-02-14T03:35:51.803Z,103059.91
2023-02-14T03:38:33.293Z,103067.84
2023-02-14T03:41:07.254Z,103056.34
2023-02-14T03:43:44.400Z,103062.56
2023-02-14T03:46:18.318Z,103059.91
2023-02-14T03:48:47.388Z,103058.13
2023-02-14T03:51:16.172Z,103056.34
2023-02-14T03:53:51.796Z,103051.03
2023-02-14T03:56:32.702Z,103053.66
2023-02-14T03:59:09.337Z,103051.94
2023-02-14T04:02:03.289Z,103052.81
2023-02-14T04:04:35.964Z,103051.06
2023-02-14T04:07:22.322Z,103051.09
2023-02-14T04:09:50.083Z,103045.78
2023-02-14T04:12:26.575Z,103054.63
2023-02-14T04:14:59.469Z,103053.75
2023-02-14T04:17:45.263Z,103056.44
2023-02-14T04:20:12.271Z,103046.69
2023-02-14T04:22:39.288Z,103043.16
2023-02-14T04:25:06.241Z,103049.34
2023-02-14T04:27:33.154Z,103040.53
2023-02-14T04:30:00.129Z,103034.31
2023-02-14T04:32:27.218Z,103028.16
2023-02-14T04:34:54.185Z,103041.41
2023-02-14T04:37:21.188Z,103035.22
2023-02-14T04:39:48.281Z,103026.44
2023-02-14T04:42:15.480Z,103029.94
2023-02-14T04:44:42.453Z,103037.91
2023-02-14T04:47:09.621Z,103039.69
2023-02-14T04:49:36.784Z,103031.72
2023-02-14T04:52:04.921Z,103023.78
2023-02-14T04:54:32.736Z,103026.41
2023-02-14T04:56:59.869Z,103022.88
2023-02-14T04:59:27.061Z,103023.75
2023-02-14T05:01:54.204Z,103029.97
2023-02-14T05:04:21.626Z,103029.06
2023-02-14T05:06:48.764Z,103023.78
2023-02-14T05:09:15.760Z,103030.84
2023-02-14T05:11:42.798Z,103031.72
2023-02-14T05:14:10.017Z,103024.66
2023-02-14T05:16:38.325Z,103020.25
2023-02-14T05:19:05.465Z,103025.53
2023-02-14T05:21:33.172Z,103023.78
2023-02-14T05:24:01.155Z,103022.88
2023-02-14T05:26:28.395Z,103022.03
2023-02-14T05:28:55.550Z,103032.59
2023-02-14T05:31:23.134Z,103022.88
2023-02-14T05:33:50.167Z,103016.72
2023-02-14T05:36:17.179Z,103022.91
2023-02-14T05:38:44.100Z,103020.25
2023-02-14T05:41:11.089Z,103014.94
2023-02-14T05:43:38.045Z,103022.00
2023-02-14T05:46:05.188Z,103012.31
2023-02-14T05:48:32.520Z,103022.88
2023-02-14T05:51:07.826Z,103017.59
2023-02-14T05:53:35.165Z,103013.19
2023-02-14T05:56:02.137Z,103022.88
2023-02-14T05:58:29.078Z,103018.47
2023-02-14T06:01:00.338Z,103029.97
2023-02-14T06:03:27.694Z,103029.97
2023-02-14T06:05:54.670Z,103014.06
2023-02-14T06:08:21.670Z,103018.50
2023-02-14T06:10:48.610Z,103022.88
2023-02-14T06:13:15.693Z,103019.34
2023-02-14T06:15:42.820Z,103019.34
2023-02-14T06:18:09.734Z,103029.94
2023-02-14T06:20:36.844Z,103024.66
2023-02-14T06:23:03.775Z,103044.97
2023-02-14T06:25:30.802Z,103034.38
2023-02-14T06:27:58.951Z,103047.63
2023-02-14T06:30:27.094Z,103047.63
2023-02-14T06:32:54.290Z,103050.28
2023-02-14T06:35:21.289Z,103052.03
2023-02-14T06:37:48.615Z,103049.38
2023-02-14T06:40:16.067Z,103044.06
2023-02-14T06:42:43.232Z,103050.25
2023-02-14T06:45:10.415Z,103040.53
2023-02-14T06:47:37.747Z,103045.84
2023-02-14T06:50:05.668Z,103046.72
2023-02-14T06:52:33.759Z,103037.00
2023-02-14T06:55:00.715Z,103037.00
2023-02-14T06:57:27.778Z,103044.06
2023-02-14T06:59:54.985Z,103033.47
2023-02-14T07:02:24.773Z,103046.69
2023-02-14T07:04:52.139Z,103036.97
2023-02-14T07:07:19.097Z,103030.81
2023-02-14T07:09:46.128Z,103038.75
2023-02-14T07:12:13.208Z,103040.53
2023-02-14T07:14:40.372Z,103047.59
2023-02-14T07:17:07.266Z,103049.38
2023-02-14T07:19:34.192Z,103037.00
2023-02-14T07:22:01.271Z,103036.13
2023-02-14T07:24:28.261Z,103032.47
2023-02-14T07:26:55.230Z,103031.09
2023-02-14T07:29:22.123Z,103022.50
2023-02-14T07:31:49.263Z,103020.34
2023-02-14T07:34:16.413Z,103024.38
2023-02-14T07:36:44.153Z,103019.28
2023-02-14T07:39:11.170Z,103017.66
2023-02-14T07:41:38.432Z,103017.78
2023-02-14T07:44:09.827Z,103012.72
2023-02-14T07:46:36.755Z,103024.69
2023-02-14T07:49:03.989Z,103020.75
2023-02-14T07:51:31.192Z,103019.38
2023-02-14T07:53:58.232Z,103021.56
2023-02-14T07:56:25.204Z,103021.16
2023-02-14T07:58:52.248Z,103024.47
2023-02-14T08:01:19.617Z,103023.75
2023-02-14T08:03:49.588Z,103023.97
2023-02-14T08:06:19.070Z,103029.50
2023-02-14T08:08:46.740Z,103022.00
2023-02-14T08:11:34.397Z,103025.59
2023-02-14T08:14:01.375Z,103021.81
2023-02-14T08:16:28.382Z,103026.59
2023-02-14T08:18:55.707Z,103024.28
2023-02-14T08:21:24.212Z,103023.75
2023-02-14T08:23:51.123Z,103023.03
2023-02-14T08:26:18.325Z,103024.91
2023-02-14T08:28:45.452Z,103023.13
2023-02-14T08:31:12.963Z,103016.78
2023-02-14T08:33:40.021Z,103017.53
2023-02-14T08:36:07.024Z,103011.19
2023-02-14T08:38:33.940Z,103016.44
2023-02-14T08:41:03.893Z,103007.44
2023-02-14T08:43:34.372Z,103015.25
2023-02-14T08:46:01.908Z,103008.84
2023-02-14T08:48:29.259Z,103005.91
2023-02-14T08:50:56.224Z,103000.38
2023-02-14T08:53:23.206Z,103016.00
2023-02-14T08:55:50.167Z,103011.09
2023-02-14T08:58:17.140Z,103011.44
2023-02-14T09:00:44.153Z,103012.81
2023-02-14T09:03:11.190Z,103008.78
2023-02-14T09:05:38.370Z,103006.47
2023-02-14T09:08:05.360Z,103003.22
2023-02-14T09:10:32.338Z,103001.63
2023-02-14T09:12:59.264Z,102996.41
2023-02-14T09:15:26.226Z,102986.13
2023-02-14T09:17:53.297Z,102987.47
2023-02-14T09:20:20.534Z,102986.28
2023-02-14T09:22:48.815Z,102984.00
2023-02-14T09:25:16.645Z,102985.00
2023-02-14T09:27:43.564Z,102980.41
2023-02-14T09:30:11.400Z,102973.88
2023-02-14T09:32:38.502Z,102978.34
2023-02-14T09:35:06.879Z,102983.66
2023-02-14T09:37:33.818Z,102979.06
2023-02-14T09:40:00.790Z,102984.59
2023-02-14T09:42:46.252Z,102981.19
2023-02-14T09:45:17.365Z,102964.72
2023-02-14T09:48:23.570Z,102973.28
2023-02-14T09:50:57.150Z,102968.00
2023-02-14T09:53:35.694Z,102969.13
2023-02-14T09:56:05.852Z,102962.88
2023-02-14T09:59:19.859Z,102963.84
2023-02-14T10:01:54.545Z,102963.03
2023-02-14T10:04:34.557Z,102960.13
2023-02-14T10:07:06.075Z,102955.66
2023-02-14T10:10:00.694Z,102962.25
2023-02-14T10:12:45.952Z,102948.94
2023-02-14T10:15:20.785Z,102953.66
2023-02-14T10:18:27.783Z,102957.09
2023-02-14T10:21:02.811Z,102957.13
2023-02-14T10:23:36.097Z,102955.31
2023-02-14T10:26:14.748Z,102958.84
2023-02-14T10:28:50.041Z,102938.13
2023-02-14T10:31:27.190Z,102934.72
2023-02-14T10:34:15.305Z,102937.03
2023-02-14T10:37:05.510Z,102937.09
2023-02-14T10:40:10.521Z,102933.63
2023-02-14T10:43:40.447Z,102935.84
2023-02-14T10:46:38.751Z,102937.41
2023-02-14T10:49:38.151Z,102931.03
2023-02-14T10:52:43.283Z,102923.41
2023-02-14T10:55:40.126Z,102917.53
2023-02-14T10:58:12.420Z,102917.00
2023-02-14T11:01:07.152Z,102910.56
2023-02-14T11:03:37.182Z,102908.03
2023-02-14T11:06:04.387Z,102907.63
2023-02-14T11:08:38.273Z,102908.53
2023-02-14T11:11:24.354Z,102900.50
2023-02-14T11:13:51.765Z,102890.69
2023-02-14T11:16:35.847Z,102889.16
2023-02-14T11:19:25.476Z,102889.41
2023-02-14T11:21:55.321Z,102888.34
2023-02-14T11:24:33.808Z,102893.53
2023-02-14T11:27:27.228Z,102879.84
2023-02-14T11:29:54.454Z,102883.63
2023-02-14T11:32:28.577Z,102883.88
2023-02-14T11:35:18.943Z,102877.00
2023-02-14T11:37:54.814Z,102879.38
2023-02-14T11:40:34.954Z,102869.28
2023-02-14T11:43:20.393Z,102876.28
2023-02-14T11:45:49.343Z,102863.88
2023-02-14T11:48:38.430Z,102854.72
2023-02-14T11:51:16.393Z,102852.31
2023-02-14T11:53:49.449Z,102852.88
2023-02-14T11:56:18.706Z,102833.78
2023-02-14T11:58:58.074Z,102830.19
2023-02-14T12:01:29.378Z,102830.59
2023-02-14T12:04:00.185Z,102829.97
2023-02-14T12:06:30.872Z,102827.31
2023-02-14T12:09:22.588Z,102825.72
2023-02-14T12:12:04.424Z,102827.63
2023-02-14T12:14:35.506Z,102825.81
2023-02-14T12:17:11.337Z,102831.25
2023-02-14T12:19:43.927Z,102819.63
2023-02-14T12:22:18.917Z,102812.06
2023-02-14T12:24:59.282Z,102803.78
2023-02-14T12:27:38.046Z,102803.22
2023-02-14T12:30:32.563Z,102794.97
2023-02-14T12:33:00.374Z,102795.88
2023-02-14T12:35:48.197Z,102795.28
2023-02-14T12:38:42.561Z,102788.75
2023-02-14T12:41:49.804Z,102786.88
2023-02-14T12:44:52.717Z,102782.69
2023-02-14T12:47:29.812Z,102783.03
2023-02-14T12:50:09.907Z,102779.06
2023-02-14T12:53:14.528Z,102776.59
2023-02-14T12:55:48.356Z,102768.50
2023-02-14T12:58:53.536Z,102767.53
2023-02-14T13:01:52.435Z,102760.47
2023-02-14T13:04:53.148Z,102754.97
2023-02-14T13:07:37.688Z,102739.94
2023-02-14T13:10:41.817Z,102750.25
2023-02-14T13:13:41.003Z,102733.72
2023-02-14T13:16:25.616Z,102739.97
2023-02-14T13:19:32.084Z,102739.22
2023-02-14T13:22:01.394Z,102729.75
2023-02-14T13:24:41.317Z,102724.69
2023-02-14T13:27:18.421Z,102723.78
2023-02-14T13:29:56.562Z,102727.66
2023-02-14T13:32:32.130Z,102715.09
2023-02-14T13:34:59.613Z,102729.91
2023-02-14T13:37:27.447Z,102720.47
2023-02-14T13:39:58.430Z,102722.91
2023-02-14T13:42:47.608Z,102716.56
2023-02-14T13:45:29.749Z,102716.84
2023-02-14T13:48:12.750Z,102712.88
2023-02-14T13:51:04.813Z,102716.31
2023-02-14T13:53:40.749Z,102710.28
2023-02-14T13:56:15.310Z,102714.25
2023-02-14T13:59:00.583Z,102709.81
2023-02-14T14:01:39.120Z,102708.84
2023-02-14T14:04:29.028Z,102709.53
2023-02-14T14:07:18.364Z,102697.72
2023-02-14T14:09:45.544Z,102695.19
2023-02-14T14:12:27.915Z,102699.41
2023-02-14T14:15:07.220Z,102699.47
2023-02-14T14:18:09.581Z,102694.75
2023-02-14T14:20:47.910Z,102699.41
2023-02-14T14:24:13.749Z,102696.94
2023-02-14T14:26:44.859Z,102696.38
2023-02-14T14:29:24.837Z,102697.44
2023-02-14T14:31:55.770Z,102693.38
2023-02-14T14:34:26.595Z,102692.47
2023-02-14T14:37:19.267Z,102688.78
2023-02-14T14:39:56.050Z,102677.19
2023-02-14T14:42:28.137Z,102675.00
2023-02-14T14:45:06.159Z,102680.81
2023-02-14T14:47:42.528Z,102658.72
2023-02-14T14:50:17.794Z,102661.59
2023-02-14T14:52:51.687Z,102661.41
2023-02-14T14:55:25.533Z,102663.94
2023-02-14T14:57:56.968Z,102662.31
2023-02-14T15:00:30.618Z,102658.13
2023-02-14T15:03:12.372Z,102661.31
2023-02-14T15:05:46.229Z,102652.34
2023-02-14T15:08:25.283Z,102655.75
2023-02-14T15:11:11.042Z,102658.63
2023-02-14T15:13:50.506Z,102651.84
2023-02-14T15:16:37.710Z,102653.25
2023-02-14T15:19:17.734Z,102643.22
2023-02-14T15:21:46.178Z,102640.31
2023-02-14T15:24:18.586Z,102638.91
2023-02-14T15:26:48.073Z,102645.78
2023-02-14T15:29:28.863Z,102644.47
2023-02-14T15:32:02.433Z,102650.41
2023-02-14T15:34:37.869Z,102645.66
2023-02-14T15:37:06.697Z,102641.56
2023-02-14T15:39:43.347Z,102646.28
2023-02-14T15:42:33.938Z,102655.81
2023-02-14T15:45:27.924Z,102638.66
2023-02-14T15:47:59.453Z,102653.00
2023-02-14T15:50:36.073Z,102639.53
2023-02-14T15:53:44.710Z,102637.50
2023-02-14T15:56:34.662Z,102637.50
2023-02-14T15:59:07.936Z,102636.88
2023-02-14T16:01:36.705Z,102634.09
2023-02-14T16:04:07.004Z,102633.97
2023-02-14T16:06:44.621Z,102637.03
2023-02-14T16:09:28.460Z,102634.00
2023-02-14T16:11:55.520Z,102625.50
2023-02-14T16:14:36.660Z,102627.38
2023-02-14T16:17:12.486Z,102630.31
2023-02-14T16:19:43.091Z,102640.53
2023-02-14T16:22:13.398Z,102633.00
2023-02-14T16:24:41.980Z,102628.66
2023-02-14T16:27:09.145Z,102632.25
2023-02-14T16:29:36.762Z,102630.59
2023-02-14T16:32:19.784Z,102632.19
2023-02-14T16:34:47.551Z,102628.22
2023-02-14T16:37:25.840Z,102630.72
2023-02-14T16:39:56.490Z,102633.78
2023-02-14T16:42:24.253Z,102635.78
2023-02-14T16:44:51.397Z,102646.09
2023-02-14T16:47:21.000Z,102636.28
2023-02-14T16:49:48.610Z,102634.63
2023-02-14T16:52:25.727Z,102637.28
2023-02-14T16:54:53.494Z,102631.16
2023-02-14T16:57:29.474Z,102637.88
2023-02-14T16:59:57.188Z,102637.19
2023-02-14T17:02:28.196Z,102640.16
2023-02-14T17:04:55.341Z,102642.69
2023-02-14T17:07:22.597Z,102645.72
2023-02-14T17:09:55.553Z,102637.34
2023-02-14T17:12:29.209Z,102636.59
2023-02-14T17:15:01.750Z,102642.69
2023-02-14T17:17:30.090Z,102629.06
2023-02-14T17:19:58.357Z,102645.16
2023-02-14T17:22:25.203Z,102633.88
2023-02-14T17:24:52.088Z,102644.56
2023-02-14T17:27:18.981Z,102635.09
2023-02-14T17:29:45.986Z,102640.81
2023-02-14T17:32:14.058Z,102628.84
2023-02-14T17:34:41.181Z,102635.53
2023-02-14T17:37:08.189Z,102621.69
2023-02-14T17:39:35.107Z,102615.81
2023-02-14T17:42:02.067Z,102633.00
2023-02-14T17:44:32.403Z,102624.41
2023-02-14T17:46:59.407Z,102629.88
2023-02-14T17:49:26.726Z,102626.59
2023-02-14T17:51:53.724Z,102622.66
2023-02-14T17:54:20.670Z,102627.81
2023-02-14T17:56:47.599Z,102619.22
2023-02-14T17:59:14.511Z,102629.91
2023-02-14T18:01:41.708Z,102625.59
2023-02-14T18:04:08.674Z,102616.88
2023-02-14T18:06:36.200Z,102620.66
2023-02-14T18:09:06.146Z,102625.22
2023-02-14T18:11:33.080Z,102608.31
2023-02-14T18:14:01.560Z,102616.09
2023-02-14T18:16:28.506Z,102619.25
2023-02-14T18:18:55.976Z,102612.72
2023-02-14T18:21:24.553Z,102611.47
2023-02-14T18:23:52.192Z,102626.03
2023-02-14T18:26:19.470Z,102621.97
2023-02-14T18:28:46.537Z,102614.25
2023-02-14T18:31:17.969Z,102610.09
2023-02-14T18:33:47.221Z,102614.81
2023-02-14T18:36:19.141Z,102617.59
2023-02-14T18:38:48.645Z,102597.78
2023-02-14T18:46:29.847Z,102579.28
2023-02-14T18:48:57.845Z,102583.66
2023-02-14T18:51:28.843Z,102586.50
2023-02-14T18:53:57.993Z,102586.94
2023-02-14T18:56:28.923Z,102591.28
2023-02-14T18:59:03.273Z,102579.63
2023-02-14T19:01:36.681Z,102585.81
2023-02-14T19:04:06.799Z,102580.91
2023-02-14T19:06:34.831Z,102586.28
2023-02-14T19:09:03.128Z,102576.50
2023-02-14T19:11:32.621Z,102585.06
2023-02-14T19:14:01.770Z,102578.34
2023-02-14T19:16:33.099Z,102582.19
2023-02-14T19:19:02.404Z,102570.50
2023-02-14T19:21:33.670Z,102580.16
2023-02-14T19:24:02.404Z,102577.44
2023-02-14T19:26:37.039Z,102573.88
2023-02-14T19:29:10.836Z,102566.53
2023-02-14T19:31:41.085Z,102579.59
2023-02-14T19:34:13.861Z,102572.94
2023-02-14T19:36:40.787Z,102574.44
2023-02-14T19:39:07.718Z,102576.69
2023-02-14T19:41:35.240Z,102583.00
2023-02-14T19:44:04.937Z,102575.59
2023-02-14T19:46:33.139Z,102562.19
2023-02-14T19:49:01.039Z,102573.44
2023-02-14T19:51:35.152Z,102573.59
2023-02-14T19:54:09.748Z,102570.06
2023-02-14T19:56:40.678Z,102574.38
2023-02-14T19:59:09.257Z,102572.63
2023-02-14T20:01:49.400Z,102568.31
2023-02-14T20:04:26.565Z,102568.31
2023-02-14T20:06:55.046Z,102563.97
2023-02-14T20:09:23.071Z,102559.69
2023-02-14T20:11:54.558Z,102560.78
2023-02-14T20:14:50.332Z,102554.91
2023-02-14T20:17:19.278Z,102566.44
2023-02-14T20:19:46.566Z,102561.19
2023-02-14T20:22:13.572Z,102565.69
2023-02-14T20:24:40.564Z,102566.84
2023-02-14T20:27:08.112Z,102566.16
2023-02-14T20:29:35.742Z,102570.00
2023-02-14T20:32:04.908Z,102567.44
2023-02-14T20:34:31.929Z,102570.22
2023-02-14T20:36:59.206Z,102567.53
2023-02-14T20:39:34.209Z,102561.78
2023-02-14T20:42:01.877Z,102551.31
2023-02-14T20:44:28.975Z,102547.88
2023-02-14T20:46:56.986Z,102548.13
2023-02-14T20:49:27.102Z,102565.22
2023-02-14T20:51:54.449Z,102551.13
2023-02-14T20:54:24.041Z,102555.75
2023-02-14T20:56:51.461Z,102549.78
2023-02-14T20:59:24.299Z,102556.34
2023-02-14T21:01:51.533Z,102544.22
2023-02-14T21:04:18.692Z,102544.78
2023-02-14T21:06:47.608Z,102547.81
2023-02-14T21:09:15.039Z,102537.47
2023-02-14T21:11:43.030Z,102533.44
2023-02-14T21:14:10.491Z,102524.97
2023-02-14T21:16:37.793Z,102529.75
2023-02-14T21:19:05.736Z,102511.34
2023-02-14T21:21:37.674Z,102523.75
2023-02-14T21:24:11.703Z,102520.97
2023-02-14T21:26:39.293Z,102529.19
2023-02-14T21:29:06.427Z,102520.31
2023-02-14T21:31:34.176Z,102517.47
2023-02-14T21:34:03.120Z,102518.31
2023-02-14T21:36:32.937Z,102501.63
2023-02-14T21:39:00.264Z,102509.38
2023-02-14T21:41:29.544Z,102490.22
2023-02-14T21:43:59.052Z,102510.56
2023-02-14T21:46:31.281Z,102500.00
2023-02-14T21:49:18.904Z,102499.47
2023-02-14T21:51:47.082Z,102503.81
2023-02-14T21:54:15.171Z,102506.44
2023-02-14T21:56:42.480Z,102511.91
2023-02-14T21:59:09.996Z,102499.72
2023-02-14T22:01:39.560Z,102487.28
2023-02-14T22:04:10.040Z,102490.06
2023-02-14T22:06:40.022Z,102487.63
2023-02-14T22:09:07.719Z,102496.50
2023-02-14T22:11:35.421Z,102496.31
2023-02-14T22:14:02.380Z,102498.13
2023-02-14T22:16:29.336Z,102491.94
2023-02-14T22:18:56.226Z,102498.25
2023-02-14T22:21:26.468Z,102501.03
2023-02-14T22:23:55.027Z,102499.41
2023-02-14T22:26:29.085Z,102516.25
2023-02-14T22:29:00.763Z,102514.50
2023-02-14T22:31:32.874Z,102516.31
2023-02-14T22:33:59.892Z,102497.47
2023-02-14T22:36:26.787Z,102495.94
2023-02-14T22:38:53.670Z,102504.88
2023-02-14T22:41:24.076Z,102507.63
2023-02-14T22:43:54.624Z,102505.06
2023-02-14T22:46:25.118Z,102500.75
2023-02-14T22:48:52.917Z,102504.25
2023-02-14T22:51:37.595Z,102507.13
2023-02-14T22:54:09.274Z,102512.69
2023-02-14T22:56:40.046Z,102516.34
2023-02-14T22:59:19.315Z,102512.78
2023-02-14T23:01:46.618Z,102495.28
2023-02-14T23:04:15.693Z,102505.84
2023-02-14T23:06:42.985Z,102499.59
2023-02-14T23:09:11.992Z,102506.69
2023-02-14T23:11:41.576Z,102502.06
2023-02-14T23:14:30.957Z,102501.25
2023-02-14T23:17:16.679Z,102492.72
2023-02-14T23:20:03.575Z,102492.88
2023-02-14T23:22:37.693Z,102491.09
2023-02-14T23:25:09.444Z,102504.13
2023-02-14T23:27:49.600Z,102492.72
2023-02-14T23:30:19.823Z,102492.00
2023-02-14T23:32:46.800Z,102500.75
2023-02-14T23:35:13.928Z,102502.56
2023-02-14T23:37:41.655Z,102487.72
2023-02-14T23:40:09.892Z,102510.72
2023-02-14T23:42:36.804Z,102495.88
2023-02-14T23:45:22.563Z,102492.34
2023-02-14T23:47:49.926Z,102490.50
2023-02-14T23:50:16.818Z,102472.13
2023-02-14T23:52:44.587Z,102481.78
2023-02-14T23:55:11.922Z,102472.13
2023-02-14T23:57:39.467Z,102483.50
